Terminal Aerodrome Forecast
Issued by NWS Buffalo, NY

Home | Current Version | Previous Version | Text Only | Print | Product List | Glossary On
Versions: 1 2 3 4 5 6 7 8 9 10 11 12 13 14 15 16 17 18 19 20 21 22 23 24 25 26 27
000
FTUS41 KBUF 011700
TAFART
TAF
KART 011730Z 0118/0218 03014KT P6SM SCT110
     FM012100 03009KT P6SM BKN110
     FM020100 04010KT P6SM OVC070
     FM020500 05012KT P6SM OVC045
     FM020700 05014KT 6SM -SN OVC035
     FM020900 05016G24KT 3SM -SN OVC025
     FM021100 04017G27KT 1SM -SN BLSN OVC015
     FM021500 03016G26KT 1/2SM SN BLSN OVC015=

USA.gov is the U.S. government's official web portal to all federal, state and local government web resources and services.